createdAt,value
2022-12-11T00:00:05.171Z,97996.75
2022-12-11T00:05:26.899Z,97997.69
2022-12-11T00:10:49.674Z,97989.25
2022-12-11T00:16:11.729Z,97997.78
2022-12-11T00:21:34.149Z,97990.16
2022-12-11T00:26:56.070Z,97990.28
2022-12-11T00:32:17.785Z,97995.56
2022-12-11T00:37:39.576Z,97986.56
2022-12-11T00:43:01.349Z,97981.78
2022-12-11T00:48:23.096Z,97980.63
2022-12-11T00:53:44.912Z,97983.69
2022-12-11T00:59:06.760Z,97988.84
2022-12-11T01:04:28.517Z,97991.41
2022-12-11T01:10:08.724Z,98001.44
2022-12-11T01:15:48.493Z,98005.78
2022-12-11T01:21:13.284Z,98017.84
2022-12-11T01:26:35.041Z,98024.34
2022-12-11T01:31:56.845Z,98030.38
2022-12-11T01:37:18.573Z,98015.81
2022-12-11T01:42:40.566Z,98022.56
2022-12-11T01:48:14.495Z,98028.72
2022-12-11T01:53:43.380Z,98025.78
2022-12-11T01:59:07.882Z,98025.34
2022-12-11T02:04:30.943Z,98025.50
2022-12-11T02:09:52.763Z,98032.56
2022-12-11T02:15:26.490Z,98033.16
2022-12-11T02:21:03.002Z,98032.88
2022-12-11T02:26:58.864Z,98032.09
2022-12-11T02:32:26.137Z,98021.25
2022-12-11T02:37:51.768Z,98015.91
2022-12-11T02:48:41.652Z,98022.84
2022-12-11T02:54:06.773Z,98025.72
2022-12-11T02:59:41.532Z,98025.81
2022-12-11T03:05:03.673Z,98027.16
2022-12-11T03:10:25.513Z,98020.47
2022-12-11T03:15:59.098Z,98027.34
2022-12-11T03:21:32.695Z,98026.66
2022-12-11T03:26:57.319Z,98024.56
2022-12-11T03:32:25.465Z,98034.38
2022-12-11T03:37:49.794Z,98022.28
2022-12-11T03:43:11.984Z,98017.88
2022-12-11T03:48:38.110Z,98030.38
2022-12-11T03:54:00.370Z,98030.28
2022-12-11T03:59:22.458Z,98029.78
2022-12-11T04:04:44.220Z,98021.34
2022-12-11T04:10:06.098Z,98012.34
2022-12-11T04:15:27.824Z,98012.88
2022-12-11T04:21:08.443Z,98007.81
2022-12-11T04:26:30.191Z,98005.34
2022-12-11T04:31:51.954Z,97996.31
2022-12-11T04:37:13.672Z,97989.41
2022-12-11T04:42:35.557Z,97983.03
2022-12-11T04:47:57.332Z,97982.84
2022-12-11T04:53:19.341Z,97969.16
2022-12-11T04:58:42.702Z,97964.47
2022-12-11T05:04:04.550Z,97950.81
2022-12-11T05:09:27.144Z,97973.19
2022-12-11T05:14:52.963Z,97989.47
2022-12-11T05:20:15.066Z,97984.50
2022-12-11T05:25:36.942Z,97976.63
2022-12-11T05:31:00.792Z,97971.50
2022-12-11T05:36:32.046Z,97973.50
2022-12-11T05:41:53.804Z,97976.75
2022-12-11T05:47:15.520Z,97969.97
2022-12-11T05:52:37.338Z,97965.81
2022-12-11T05:57:59.077Z,97971.88
2022-12-11T06:03:20.831Z,97976.34
2022-12-11T06:08:42.796Z,97974.66
2022-12-11T06:14:04.728Z,97982.34
2022-12-11T06:19:26.471Z,97973.66
2022-12-11T06:24:48.174Z,97964.84
2022-12-11T06:30:10.459Z,97964.41
2022-12-11T06:35:34.237Z,97951.81
2022-12-11T06:41:02.580Z,97962.38
2022-12-11T06:46:24.344Z,97955.66
2022-12-11T06:51:46.133Z,97961.53
2022-12-11T06:57:09.576Z,97961.09
2022-12-11T07:02:31.704Z,97969.56
2022-12-11T07:07:54.761Z,97981.84
2022-12-11T07:13:16.633Z,97977.72
2022-12-11T07:18:40.566Z,97977.13
2022-12-11T07:24:02.503Z,97986.91
2022-12-11T07:29:24.506Z,97984.97
2022-12-11T07:34:51.571Z,97982.53
2022-12-11T07:40:14.224Z,97989.41
2022-12-11T07:45:35.991Z,97989.56
2022-12-11T07:51:17.709Z,97997.63
2022-12-11T07:56:43.657Z,97988.69
2022-12-11T08:02:06.113Z,97989.78
2022-12-11T08:07:27.897Z,97986.16
2022-12-11T08:12:49.639Z,97975.59
2022-12-11T08:18:11.410Z,97983.22
2022-12-11T08:23:33.538Z,97981.41
2022-12-11T08:28:56.018Z,97978.69
2022-12-11T08:34:17.753Z,97982.03
2022-12-11T08:39:39.713Z,97991.06
2022-12-11T08:45:01.441Z,97994.38
2022-12-11T08:50:23.235Z,97992.38
2022-12-11T08:55:45.029Z,97997.75
2022-12-11T09:01:13.671Z,97982.84
2022-12-11T09:06:35.672Z,97982.38
2022-12-11T09:11:57.448Z,97979.78
2022-12-11T09:17:19.277Z,97970.25
2022-12-11T09:22:42.804Z,97970.28
2022-12-11T09:28:04.659Z,97974.78
2022-12-11T09:33:26.469Z,97972.63
2022-12-11T09:38:48.482Z,97971.97
2022-12-11T09:44:28.701Z,97968.16
2022-12-11T09:49:56.859Z,97959.56
2022-12-11T09:55:24.702Z,97953.94
2022-12-11T10:01:01.474Z,97953.63
2022-12-11T10:06:35.790Z,97952.09
2022-12-11T10:11:57.506Z,97952.75
2022-12-11T10:17:23.427Z,97953.25
2022-12-11T10:22:45.902Z,97940.97
2022-12-11T10:28:16.067Z,97924.75
2022-12-11T10:33:40.733Z,97922.00
2022-12-11T10:39:04.074Z,97921.78
2022-12-11T10:44:31.118Z,97915.75
2022-12-11T10:49:52.811Z,97906.06
2022-12-11T10:55:22.592Z,97906.34
2022-12-11T11:00:45.883Z,97891.34
2022-12-11T11:06:17.413Z,97892.56
2022-12-11T11:11:39.643Z,97892.94
2022-12-11T11:17:01.425Z,97893.56
2022-12-11T11:22:23.271Z,97881.78
2022-12-11T11:27:57.711Z,97880.63
2022-12-11T11:33:22.325Z,97882.56
2022-12-11T11:39:03.784Z,97884.50
2022-12-11T11:44:32.075Z,97886.91
2022-12-11T11:50:08.405Z,97864.69
2022-12-11T11:55:53.899Z,97863.97
2022-12-11T12:01:19.422Z,97862.47
2022-12-11T12:06:57.833Z,97864.09
2022-12-11T12:13:01.252Z,97865.78
2022-12-11T12:18:23.022Z,97863.69
2022-12-11T12:23:59.973Z,97871.94
2022-12-11T12:29:40.495Z,97861.41
2022-12-11T12:35:17.231Z,97858.53
2022-12-11T12:40:55.987Z,97853.69
2022-12-11T12:46:20.497Z,97841.63
2022-12-11T12:51:44.357Z,97840.44
2022-12-11T12:57:06.826Z,97827.19
2022-12-11T13:02:29.833Z,97834.44
2022-12-11T13:07:55.413Z,97844.38
2022-12-11T13:13:32.565Z,97844.28
2022-12-11T13:18:54.720Z,97839.53
2022-12-11T13:24:26.043Z,97831.69
2022-12-11T13:29:47.976Z,97840.94
2022-12-11T13:35:16.321Z,97843.34
2022-12-11T13:40:44.359Z,97845.66
2022-12-11T13:46:11.309Z,97840.41
2022-12-11T13:51:36.083Z,97846.28
2022-12-11T13:56:57.843Z,97851.50
2022-12-11T14:02:25.695Z,97855.56
2022-12-11T14:07:57.227Z,97854.81
2022-12-11T14:13:23.454Z,97858.19
2022-12-11T14:18:45.405Z,97860.66
2022-12-11T14:24:12.666Z,97856.59
2022-12-11T14:29:34.394Z,97870.41
2022-12-11T14:34:57.179Z,97871.66
2022-12-11T14:40:22.572Z,97876.31
2022-12-11T14:45:48.662Z,97878.69
2022-12-11T14:51:14.987Z,97885.94
2022-12-11T14:56:37.379Z,97885.03
2022-12-11T15:02:02.090Z,97889.16
2022-12-11T15:07:24.363Z,97888.94
2022-12-11T15:12:46.473Z,97885.63
2022-12-11T15:18:20.664Z,97897.03
2022-12-11T15:23:54.573Z,97897.31
2022-12-11T15:29:30.422Z,97893.16
2022-12-11T15:34:56.307Z,97894.81
2022-12-11T15:40:18.081Z,97902.16
2022-12-11T15:45:39.866Z,97906.31
2022-12-11T15:51:01.666Z,97907.72
2022-12-11T15:56:23.478Z,97914.19
2022-12-11T16:01:45.373Z,97915.53
2022-12-11T16:07:16.498Z,97919.44
2022-12-11T16:12:38.240Z,97912.00
2022-12-11T16:18:06.013Z,97915.03
2022-12-11T16:23:29.429Z,97924.09
2022-12-11T16:28:51.178Z,97916.59
2022-12-11T16:34:12.964Z,97916.19
2022-12-11T16:39:36.916Z,97913.41
2022-12-11T16:45:06.086Z,97906.63
2022-12-11T16:50:27.834Z,97906.75
2022-12-11T16:55:49.701Z,97911.38
2022-12-11T17:01:12.896Z,97912.00
2022-12-11T17:06:34.738Z,97905.41
2022-12-11T17:11:56.518Z,97909.75
2022-12-11T17:17:18.293Z,97909.34
2022-12-11T17:22:40.145Z,97907.28
2022-12-11T17:28:01.893Z,97906.66
2022-12-11T17:33:24.101Z,97905.41
2022-12-11T17:38:48.290Z,97903.88
2022-12-11T17:44:10.401Z,97908.63
2022-12-11T17:49:32.611Z,97902.31
2022-12-11T17:54:54.375Z,97893.59
2022-12-11T18:00:16.382Z,97901.38
2022-12-11T18:05:46.675Z,97904.84
2022-12-11T18:11:12.200Z,97903.66
2022-12-11T18:16:36.773Z,97899.44
2022-12-11T18:21:58.555Z,97906.53
2022-12-11T18:27:20.308Z,97897.97
2022-12-11T18:32:43.946Z,97903.31
2022-12-11T18:38:05.895Z,97906.25
2022-12-11T18:43:27.640Z,97904.53
2022-12-11T18:48:50.648Z,97893.63
2022-12-11T18:54:12.466Z,97901.13
2022-12-11T18:59:34.358Z,97900.53
2022-12-11T19:04:56.077Z,97906.91
2022-12-11T19:10:17.886Z,97907.94
2022-12-11T19:15:41.896Z,97898.47
2022-12-11T19:21:09.475Z,97909.69
2022-12-11T19:26:31.286Z,97906.78
2022-12-11T19:31:55.122Z,97897.47
2022-12-11T19:37:16.943Z,97890.97
2022-12-11T19:42:38.696Z,97885.88
2022-12-11T19:48:00.535Z,97897.78
2022-12-11T19:53:22.353Z,97895.63
2022-12-11T19:58:44.981Z,97895.19
2022-12-11T20:04:10.213Z,97911.53
2022-12-11T20:09:33.617Z,97908.75
2022-12-11T20:14:55.405Z,97925.34
2022-12-11T20:20:17.258Z,97921.75
2022-12-11T20:25:40.380Z,97925.59
2022-12-11T20:31:16.376Z,97914.47
2022-12-11T20:36:41.523Z,97914.84
2022-12-11T20:42:04.989Z,97917.03
2022-12-11T20:47:26.789Z,97924.78
2022-12-11T20:52:48.533Z,97920.53
2022-12-11T20:58:11.441Z,97932.84
2022-12-11T21:03:40.404Z,97922.00
2022-12-11T21:09:07.070Z,97927.03
2022-12-11T21:14:30.496Z,97924.19
2022-12-11T21:19:52.632Z,97933.28
2022-12-11T21:25:14.672Z,97927.06
2022-12-11T21:30:40.113Z,97920.63
2022-12-11T21:36:02.365Z,97921.69
2022-12-11T21:41:25.036Z,97917.72
2022-12-11T21:46:46.785Z,97927.50
2022-12-11T21:52:09.221Z,97935.03
2022-12-11T21:57:31.251Z,97935.47
2022-12-11T22:02:53.103Z,97951.94
2022-12-11T22:08:15.712Z,97945.91
2022-12-11T22:13:37.587Z,97949.16
2022-12-11T22:18:59.878Z,97947.56
2022-12-11T22:24:21.602Z,97945.88
2022-12-11T22:29:43.409Z,97943.84
2022-12-11T22:35:05.457Z,97946.44
2022-12-11T22:40:27.601Z,97940.34
2022-12-11T22:45:49.448Z,97947.50
2022-12-11T22:51:11.675Z,97945.53
2022-12-11T22:56:33.419Z,97945.94
2022-12-11T23:01:55.258Z,97957.25
2022-12-11T23:07:16.994Z,97950.94
2022-12-11T23:12:38.759Z,97953.75
2022-12-11T23:18:00.550Z,97955.00
2022-12-11T23:23:22.321Z,97957.97
2022-12-11T23:28:45.073Z,97959.75
2022-12-11T23:34:06.905Z,97959.38
2022-12-11T23:39:28.861Z,97956.16
2022-12-11T23:44:50.710Z,97953.63
2022-12-11T23:50:12.461Z,97958.28
2022-12-11T23:55:34.563Z,97955.88
